createdAt,value
2016-12-14T00:00:56.810Z,20.76
2016-12-14T00:02:05.816Z,20.76
2016-12-14T00:03:14.845Z,20.79
2016-12-14T00:04:23.853Z,20.82
2016-12-14T00:05:32.876Z,20.85
2016-12-14T00:06:41.880Z,20.8
2016-12-14T00:07:50.582Z,20.79
2016-12-14T00:08:59.579Z,20.79
2016-12-14T00:10:08.573Z,20.77
2016-12-14T00:11:17.612Z,20.79
2016-12-14T00:12:26.655Z,20.82
2016-12-14T00:13:35.690Z,20.79
2016-12-14T00:14:44.383Z,20.79
2016-12-14T00:15:53.423Z,20.85
2016-12-14T00:17:02.736Z,20.82
2016-12-14T00:18:11.432Z,20.79
2016-12-14T00:19:20.814Z,20.77
2016-12-14T00:20:29.804Z,20.8
2016-12-14T00:21:39.123Z,20.73
2016-12-14T00:22:48.166Z,20.74
2016-12-14T00:23:57.468Z,20.8
2016-12-14T00:25:06.212Z,20.7
2016-12-14T00:26:15.198Z,20.72
2016-12-14T00:27:24.201Z,20.76
2016-12-14T00:28:33.200Z,20.69
2016-12-14T00:29:41.886Z,20.77
2016-12-14T00:30:51.195Z,20.69
2016-12-14T00:32:01.126Z,20.76
2016-12-14T00:33:10.440Z,20.77
2016-12-14T00:34:20.419Z,20.73
2016-12-14T00:35:29.099Z,20.76
2016-12-14T00:36:38.412Z,20.7
2016-12-14T00:37:47.730Z,20.82
2016-12-14T00:38:56.730Z,20.79
2016-12-14T00:40:05.739Z,20.73
2016-12-14T00:41:14.426Z,20.72
2016-12-14T00:42:23.132Z,20.7
2016-12-14T00:43:31.827Z,20.69
2016-12-14T00:44:40.833Z,20.87
2016-12-14T00:45:49.864Z,20.69
2016-12-14T00:46:58.543Z,20.66
2016-12-14T00:48:07.545Z,20.69
2016-12-14T00:49:16.352Z,20.66
2016-12-14T00:50:25.346Z,20.64
2016-12-14T00:51:34.342Z,20.66
2016-12-14T00:52:43.064Z,20.69
2016-12-14T00:53:52.076Z,20.67
2016-12-14T00:55:00.850Z,20.7
2016-12-14T00:56:10.150Z,20.69
2016-12-14T00:57:19.155Z,20.72
2016-12-14T00:58:28.158Z,20.67
2016-12-14T00:59:37.488Z,20.62
2016-12-14T01:00:46.174Z,20.7
2016-12-14T01:01:55.184Z,20.69
2016-12-14T01:03:05.116Z,20.66
2016-12-14T01:04:13.812Z,20.72
2016-12-14T01:05:22.843Z,20.7
2016-12-14T01:06:31.539Z,20.79
2016-12-14T01:07:40.545Z,20.66
2016-12-14T01:08:49.245Z,20.73
2016-12-14T01:09:58.236Z,20.69
2016-12-14T01:11:06.951Z,20.67
2016-12-14T01:12:15.652Z,20.73
2016-12-14T01:13:24.374Z,20.67
2016-12-14T01:14:33.699Z,20.69
2016-12-14T01:15:43.047Z,20.67
2016-12-14T01:16:52.044Z,20.72
2016-12-14T01:18:01.040Z,20.7
2016-12-14T01:19:10.037Z,20.67
2016-12-14T01:20:19.343Z,20.67
2016-12-14T01:21:28.340Z,20.73
2016-12-14T01:22:37.321Z,20.72
2016-12-14T01:23:46.625Z,20.64
2016-12-14T01:24:55.640Z,20.64
2016-12-14T01:26:04.957Z,20.67
2016-12-14T01:27:13.934Z,20.72
2016-12-14T01:28:23.289Z,20.69
2016-12-14T01:29:32.599Z,20.69
2016-12-14T01:30:41.939Z,20.73
2016-12-14T01:31:50.926Z,20.74
2016-12-14T01:33:00.246Z,20.73
2016-12-14T01:34:09.550Z,20.69
2016-12-14T01:35:18.544Z,20.66
2016-12-14T01:36:28.145Z,20.72
2016-12-14T01:37:37.450Z,20.67
2016-12-14T01:38:46.446Z,20.66
2016-12-14T01:39:55.736Z,20.66
2016-12-14T01:41:04.730Z,20.72
2016-12-14T01:42:14.024Z,20.69
2016-12-14T01:43:23.010Z,20.73
2016-12-14T01:44:31.689Z,20.66
2016-12-14T01:45:40.386Z,20.77
2016-12-14T01:46:49.676Z,20.66
2016-12-14T01:47:58.677Z,20.67
2016-12-14T01:49:07.663Z,20.69
2016-12-14T01:50:16.646Z,20.67
2016-12-14T01:51:25.651Z,20.69
2016-12-14T01:52:34.369Z,20.69
2016-12-14T01:53:43.074Z,20.7
2016-12-14T01:54:51.750Z,20.74
2016-12-14T01:56:01.050Z,20.7
2016-12-14T01:57:09.732Z,20.72
2016-12-14T01:58:19.041Z,20.69
2016-12-14T01:59:28.339Z,20.7
2016-12-14T02:00:37.950Z,20.67
2016-12-14T02:01:46.958Z,20.7
2016-12-14T02:02:55.648Z,20.69
2016-12-14T02:04:04.941Z,20.7
2016-12-14T02:05:13.920Z,20.69
2016-12-14T02:06:23.226Z,20.66
2016-12-14T02:07:32.522Z,20.64
2016-12-14T02:08:41.821Z,20.67
2016-12-14T02:09:51.129Z,20.64
2016-12-14T02:10:59.831Z,20.67
2016-12-14T02:12:09.762Z,20.69
2016-12-14T02:13:18.446Z,20.62
2016-12-14T02:14:27.740Z,20.67
2016-12-14T02:15:37.354Z,20.72
2016-12-14T02:16:46.375Z,20.59
2016-12-14T02:17:55.075Z,20.7
2016-12-14T02:19:04.067Z,20.62
2016-12-14T02:20:12.741Z,20.7
2016-12-14T02:21:21.727Z,20.64
2016-12-14T02:22:31.024Z,20.66
2016-12-14T02:23:40.023Z,20.64
2016-12-14T02:24:49.019Z,20.61
2016-12-14T02:25:58.002Z,20.57
2016-12-14T02:27:06.993Z,20.66
2016-12-14T02:28:15.684Z,20.58
2016-12-14T02:29:24.361Z,20.67
2016-12-14T02:30:33.687Z,20.64
2016-12-14T02:31:42.374Z,20.67
2016-12-14T02:32:51.375Z,20.7
2016-12-14T02:34:00.073Z,20.69
2016-12-14T02:35:08.811Z,20.67
2016-12-14T02:36:17.519Z,20.67
2016-12-14T02:37:26.215Z,20.64
2016-12-14T02:38:35.512Z,20.64
2016-12-14T02:39:44.499Z,20.64
2016-12-14T02:40:53.804Z,20.61
2016-12-14T02:42:03.118Z,20.66
2016-12-14T02:43:11.817Z,20.59
2016-12-14T02:44:20.506Z,20.7
2016-12-14T02:45:29.499Z,20.62
2016-12-14T02:46:38.814Z,20.66
2016-12-14T02:47:47.831Z,20.57
2016-12-14T02:48:57.742Z,20.64
2016-12-14T02:50:07.048Z,20.7
2016-12-14T02:51:16.031Z,20.62
2016-12-14T02:52:24.734Z,20.69
2016-12-14T02:53:33.722Z,20.66
2016-12-14T02:54:42.422Z,20.64
2016-12-14T02:55:51.427Z,20.64
2016-12-14T02:57:00.754Z,20.57
2016-12-14T02:58:09.437Z,20.58
2016-12-14T02:59:18.167Z,20.64
2016-12-14T03:00:27.457Z,20.69
2016-12-14T03:01:36.440Z,20.66
2016-12-14T03:02:46.046Z,20.69
2016-12-14T03:03:55.040Z,20.72
2016-12-14T03:05:04.038Z,20.67
2016-12-14T03:06:12.730Z,20.67
2016-12-14T03:07:21.733Z,20.62
2016-12-14T03:08:30.725Z,20.64
2016-12-14T03:09:39.716Z,20.64
2016-12-14T03:10:49.005Z,20.64
2016-12-14T03:11:57.989Z,20.64
2016-12-14T03:13:07.295Z,20.66
2016-12-14T03:14:15.988Z,20.64
2016-12-14T03:15:25.302Z,20.64
2016-12-14T03:16:34.586Z,20.64
2016-12-14T03:17:43.885Z,20.61
2016-12-14T03:18:52.883Z,20.66
2016-12-14T03:20:01.883Z,20.66
2016-12-14T03:21:10.613Z,20.64
2016-12-14T03:22:19.291Z,20.66
2016-12-14T03:23:28.291Z,20.62
2016-12-14T03:24:36.988Z,20.61
2016-12-14T03:25:45.682Z,20.59
2016-12-14T03:26:54.376Z,20.62
2016-12-14T03:28:03.386Z,20.61
2016-12-14T03:29:12.375Z,20.55
2016-12-14T03:30:21.369Z,20.64
2016-12-14T03:31:30.071Z,20.62
2016-12-14T03:32:38.793Z,20.62
2016-12-14T03:33:47.540Z,20.64
2016-12-14T03:34:56.523Z,20.62
2016-12-14T03:36:06.150Z,20.64
2016-12-14T03:37:15.169Z,20.64
2016-12-14T03:38:24.478Z,20.7
2016-12-14T03:39:33.773Z,20.59
2016-12-14T03:40:43.379Z,20.66
2016-12-14T03:41:52.402Z,20.61
2016-12-14T03:43:01.082Z,20.62
2016-12-14T03:44:10.076Z,20.66
2016-12-14T03:45:18.764Z,20.61
2016-12-14T03:46:27.449Z,20.61
2016-12-14T03:47:36.158Z,20.57
2016-12-14T03:48:45.145Z,20.66
2016-12-14T03:49:53.838Z,20.61
2016-12-14T03:51:02.852Z,20.59
2016-12-14T03:52:11.870Z,20.62
2016-12-14T03:53:20.852Z,20.61
2016-12-14T03:54:29.844Z,20.64
2016-12-14T03:55:39.131Z,20.61
2016-12-14T03:56:48.115Z,20.62
2016-12-14T03:57:57.108Z,20.61
2016-12-14T03:59:06.101Z,20.62
2016-12-14T04:00:15.399Z,20.64
2016-12-14T04:01:24.708Z,20.62
2016-12-14T04:02:33.708Z,20.58
2016-12-14T04:03:43.033Z,20.62
2016-12-14T04:04:52.043Z,20.54
2016-12-14T04:06:00.727Z,20.57
2016-12-14T04:07:09.716Z,20.61
2016-12-14T04:10:51.069Z,20.61
2016-12-14T04:11:59.749Z,20.66
2016-12-14T04:15:41.111Z,20.61
2016-12-14T04:16:50.096Z,20.61
2016-12-14T04:17:58.766Z,20.59
2016-12-14T04:19:08.410Z,20.57
2016-12-14T04:20:17.107Z,20.64
2016-12-14T04:21:25.790Z,20.59
2016-12-14T04:22:35.089Z,20.57
2016-12-14T04:23:43.790Z,20.57
2016-12-14T04:24:52.782Z,20.57
2016-12-14T04:26:01.524Z,20.58
2016-12-14T04:27:10.520Z,20.67
2016-12-14T04:28:20.139Z,20.64
2016-12-14T04:29:29.140Z,20.59
2016-12-14T04:30:38.741Z,20.57
2016-12-14T04:31:47.743Z,20.64
2016-12-14T04:32:56.731Z,20.66
2016-12-14T04:34:05.749Z,20.59
2016-12-14T04:35:14.431Z,20.59
2016-12-14T04:36:23.747Z,20.59
2016-12-14T04:37:33.045Z,20.57
2016-12-14T04:38:41.785Z,20.57
2016-12-14T04:39:51.196Z,20.64
2016-12-14T04:41:00.793Z,20.55
2016-12-14T04:42:10.146Z,20.57
2016-12-14T04:43:19.129Z,20.59
2016-12-14T04:44:28.472Z,20.57
2016-12-14T04:45:37.467Z,20.54
2016-12-14T04:46:46.169Z,20.64
2016-12-14T04:47:55.459Z,20.64
2016-12-14T04:49:04.793Z,20.55
2016-12-14T04:50:13.786Z,20.59
2016-12-14T04:51:22.787Z,20.69
2016-12-14T04:52:32.080Z,20.59
2016-12-14T04:53:41.103Z,20.64
2016-12-14T04:54:50.716Z,20.57
2016-12-14T04:55:59.430Z,20.58
2016-12-14T04:57:08.458Z,20.57
2016-12-14T04:58:17.477Z,20.64
2016-12-14T04:59:26.489Z,20.55
2016-12-14T05:00:35.818Z,20.54
2016-12-14T05:01:44.816Z,20.57
2016-12-14T05:02:54.409Z,20.57
2016-12-14T05:04:03.177Z,20.59
2016-12-14T05:05:12.228Z,20.52
2016-12-14T05:06:21.851Z,20.62
2016-12-14T05:07:30.860Z,20.55
2016-12-14T05:08:39.923Z,20.55
2016-12-14T05:09:49.242Z,20.55
2016-12-14T05:10:58.579Z,20.54
2016-12-14T05:12:07.934Z,20.52
2016-12-14T05:13:16.624Z,20.62
2016-12-14T05:14:25.304Z,20.59
2016-12-14T05:15:34.960Z,20.54
2016-12-14T05:16:43.680Z,20.64
2016-12-14T05:17:52.401Z,20.51
2016-12-14T05:19:01.392Z,20.61
2016-12-14T05:20:11.003Z,20.64
2016-12-14T05:21:20.005Z,20.58
2016-12-14T05:22:28.716Z,20.55
2016-12-14T05:23:38.330Z,20.58
2016-12-14T05:24:47.324Z,20.66
2016-12-14T05:25:56.421Z,20.54
2016-12-14T05:27:05.502Z,20.57
2016-12-14T05:28:14.819Z,20.61
2016-12-14T05:29:23.828Z,20.52
2016-12-14T05:30:32.836Z,20.62
2016-12-14T05:31:41.979Z,20.58
2016-12-14T05:32:50.680Z,20.54
2016-12-14T05:33:59.679Z,20.62
2016-12-14T05:35:08.404Z,20.58
2016-12-14T05:36:17.400Z,20.64
2016-12-14T05:37:26.092Z,20.7
2016-12-14T05:38:35.696Z,20.67
2016-12-14T05:39:44.394Z,20.73
2016-12-14T05:40:53.434Z,20.67
2016-12-14T05:42:02.472Z,20.82
2016-12-14T05:43:11.183Z,20.88
2016-12-14T05:44:20.813Z,20.88
2016-12-14T05:45:29.804Z,20.98
2016-12-14T05:46:38.855Z,21.04
2016-12-14T05:47:47.849Z,21.07
2016-12-14T05:48:56.535Z,21.13
2016-12-14T05:50:05.832Z,21.16
2016-12-14T05:51:15.149Z,21.27
2016-12-14T05:52:24.139Z,21.38
2016-12-14T05:53:33.451Z,21.37
2016-12-14T05:54:42.482Z,21.34
2016-12-14T05:55:52.111Z,21.44
2016-12-14T05:57:01.112Z,21.43
2016-12-14T05:58:09.821Z,21.46
2016-12-14T05:59:18.821Z,21.56
2016-12-14T06:00:27.519Z,21.58
2016-12-14T06:01:36.515Z,21.59
2016-12-14T06:02:45.496Z,21.54
2016-12-14T06:03:54.176Z,21.68
2016-12-14T06:05:03.183Z,21.64
2016-12-14T06:06:11.872Z,21.65
2016-12-14T06:07:20.860Z,21.71
2016-12-14T06:08:30.473Z,21.75
2016-12-14T06:09:39.779Z,21.8
2016-12-14T06:10:49.072Z,21.82
2016-12-14T06:11:58.095Z,21.92
2016-12-14T06:13:07.105Z,21.91
2016-12-14T06:14:16.087Z,21.98
2016-12-14T06:15:25.080Z,22
2016-12-14T06:16:34.089Z,21.96
2016-12-14T06:17:43.485Z,21.94
2016-12-14T06:18:52.844Z,22.12
2016-12-14T06:20:01.613Z,22.03
2016-12-14T06:21:10.598Z,22.14
2016-12-14T06:22:20.220Z,22.2
2016-12-14T06:23:29.529Z,22.21
2016-12-14T06:24:39.152Z,22.2
2016-12-14T06:25:47.839Z,22.18
2016-12-14T06:26:56.845Z,22.22
2016-12-14T06:28:05.549Z,22.31
2016-12-14T06:29:14.881Z,22.35
2016-12-14T06:30:23.886Z,22.35
2016-12-14T06:31:32.882Z,22.4
2016-12-14T06:32:41.894Z,22.43
2016-12-14T06:33:50.883Z,22.58
2016-12-14T06:34:59.881Z,22.58
2016-12-14T06:36:08.875Z,22.6
2016-12-14T06:37:18.194Z,22.62
2016-12-14T06:38:27.194Z,22.6
2016-12-14T06:39:36.179Z,22.7
2016-12-14T06:40:45.488Z,22.7
2016-12-14T06:41:54.796Z,22.72
2016-12-14T06:43:03.799Z,22.79
2016-12-14T06:44:12.530Z,22.76
2016-12-14T06:45:21.534Z,22.82
2016-12-14T06:46:30.905Z,22.86
2016-12-14T06:47:39.593Z,22.86
2016-12-14T06:48:48.316Z,22.95
2016-12-14T06:49:57.324Z,22.98
2016-12-14T06:51:06.007Z,23.01
2016-12-14T06:52:14.997Z,23.02
2016-12-14T06:53:24.845Z,23.07
2016-12-14T06:54:34.813Z,23.02
2016-12-14T06:55:43.834Z,23.07
2016-12-14T06:56:52.895Z,23.16
2016-12-14T06:58:01.986Z,23.15
2016-12-14T06:59:10.982Z,23.13
2016-12-14T07:00:20.297Z,23.16
2016-12-14T07:01:29.279Z,23.15
2016-12-14T07:02:38.589Z,23.19
2016-12-14T07:03:47.618Z,23.15
2016-12-14T07:04:57.057Z,23.15
2016-12-14T07:06:06.227Z,23.1
2016-12-14T07:07:15.036Z,23.15
2016-12-14T07:08:24.526Z,23.15
2016-12-14T07:09:33.287Z,23.16
2016-12-14T07:10:42.022Z,23.15
2016-12-14T07:11:50.727Z,23.16
2016-12-14T07:13:00.045Z,23.1
2016-12-14T07:14:08.786Z,23.17
2016-12-14T07:15:17.784Z,23.15
2016-12-14T07:16:27.088Z,23.13
2016-12-14T07:17:35.782Z,23.09
2016-12-14T07:18:44.461Z,23.05
2016-12-14T07:19:53.755Z,23.01
2016-12-14T07:21:02.753Z,23
2016-12-14T07:22:11.457Z,23.04
2016-12-14T07:23:20.151Z,22.95
2016-12-14T07:24:28.846Z,22.95
2016-12-14T07:25:37.849Z,22.97
2016-12-14T07:26:46.533Z,22.9
2016-12-14T07:27:55.534Z,22.86
2016-12-14T07:29:04.527Z,22.86
2016-12-14T07:30:13.223Z,22.85
2016-12-14T07:31:21.916Z,22.8
2016-12-14T07:32:30.925Z,22.79
2016-12-14T07:33:39.927Z,22.73
2016-12-14T07:34:48.621Z,22.7
2016-12-14T07:35:57.319Z,22.67
2016-12-14T07:37:06.317Z,22.57
2016-12-14T07:38:15.609Z,22.61
2016-12-14T07:39:24.903Z,22.54
2016-12-14T07:40:33.908Z,22.62
2016-12-14T07:41:42.590Z,22.61
2016-12-14T07:42:52.228Z,22.52
2016-12-14T07:44:00.914Z,22.52
2016-12-14T07:45:10.606Z,22.47
2016-12-14T07:46:19.299Z,22.55
2016-12-14T07:47:28.607Z,22.4
2016-12-14T07:48:37.445Z,22.42
2016-12-14T07:49:46.475Z,22.43
2016-12-14T07:50:55.787Z,22.46
2016-12-14T07:52:04.474Z,22.43
2016-12-14T07:53:13.472Z,22.43
2016-12-14T07:54:22.161Z,22.36
2016-12-14T07:55:31.153Z,22.4
2016-12-14T07:56:40.145Z,22.33
2016-12-14T07:57:50.050Z,22.27
2016-12-14T07:58:59.061Z,22.28
2016-12-14T08:00:07.757Z,22.33
2016-12-14T08:01:16.431Z,22.31
2016-12-14T08:02:25.124Z,22.28
2016-12-14T08:03:34.133Z,22.27
2016-12-14T08:04:43.126Z,22.3
2016-12-14T08:05:51.813Z,22.27
2016-12-14T08:07:00.810Z,22.22
2016-12-14T08:08:10.100Z,22.24
2016-12-14T08:09:18.820Z,22.21
2016-12-14T08:10:28.115Z,22.21
2016-12-14T08:11:37.730Z,22.22
2016-12-14T08:12:46.410Z,22.15
2016-12-14T08:13:55.441Z,22.27
2016-12-14T08:15:04.444Z,22.22
2016-12-14T08:16:13.142Z,22.22
2016-12-14T08:17:22.126Z,22.18
2016-12-14T08:18:31.448Z,22.14
2016-12-14T08:19:40.472Z,22.05
2016-12-14T08:20:49.463Z,22.03
2016-12-14T08:21:58.167Z,22.03
2016-12-14T08:23:07.499Z,22
2016-12-14T08:24:16.811Z,22.03
2016-12-14T08:25:25.518Z,21.99
2016-12-14T08:26:34.209Z,22.03
2016-12-14T08:27:43.246Z,22.03
2016-12-14T08:28:51.933Z,22.1
2016-12-14T08:30:00.650Z,21.99
2016-12-14T08:31:09.650Z,22.03
2016-12-14T08:32:18.348Z,22
2016-12-14T08:33:27.326Z,21.9
2016-12-14T08:34:36.363Z,21.98
2016-12-14T08:35:45.043Z,22.03
2016-12-14T08:36:54.645Z,22
2016-12-14T08:38:03.950Z,21.99
2016-12-14T08:39:12.656Z,22.03
2016-12-14T08:40:22.274Z,21.99
2016-12-14T08:41:31.278Z,21.91
2016-12-14T08:42:40.284Z,21.96
2016-12-14T08:43:49.292Z,21.94
2016-12-14T08:44:58.911Z,21.98
2016-12-14T08:46:08.207Z,21.94
2016-12-14T08:47:17.197Z,21.96
2016-12-14T08:48:26.495Z,21.98
2016-12-14T08:49:35.831Z,21.9
2016-12-14T08:50:45.139Z,21.88
2016-12-14T08:51:54.750Z,21.84
2016-12-14T08:53:03.428Z,21.94
2016-12-14T08:54:12.112Z,21.9
2016-12-14T08:55:21.417Z,21.98
2016-12-14T08:56:30.104Z,21.96
2016-12-14T08:57:39.105Z,21.94
2016-12-14T08:58:47.789Z,21.88
2016-12-14T08:59:57.113Z,21.91
2016-12-14T09:01:06.113Z,21.83
2016-12-14T09:02:15.103Z,21.92
2016-12-14T09:03:24.092Z,21.84
2016-12-14T09:04:33.081Z,21.83
2016-12-14T09:05:42.375Z,21.9
2016-12-14T09:06:51.665Z,21.86
2016-12-14T09:08:01.260Z,21.79
2016-12-14T09:09:09.976Z,21.82
2016-12-14T09:10:18.972Z,21.79
2016-12-14T09:11:27.715Z,21.79
2016-12-14T09:12:37.036Z,21.75
2016-12-14T09:13:46.645Z,21.88
2016-12-14T09:14:55.625Z,21.77
2016-12-14T09:16:04.639Z,21.86
2016-12-14T09:17:14.258Z,21.72
2016-12-14T09:18:23.272Z,21.77
2016-12-14T09:19:32.015Z,21.86
2016-12-14T09:20:41.349Z,21.91
2016-12-14T09:21:51.013Z,21.77
2016-12-14T09:23:00.625Z,21.83
2016-12-14T09:24:09.329Z,21.86
2016-12-14T09:25:18.318Z,21.74
2016-12-14T09:26:27.345Z,21.77
2016-12-14T09:27:36.350Z,21.9
2016-12-14T09:28:45.349Z,21.8
2016-12-14T09:29:54.039Z,21.83
2016-12-14T09:31:02.745Z,21.72
2016-12-14T09:32:12.674Z,21.8
2016-12-14T09:33:21.658Z,21.88
2016-12-14T09:34:30.635Z,21.82
2016-12-14T09:35:39.930Z,21.74
2016-12-14T09:36:48.613Z,21.83
2016-12-14T09:37:57.620Z,21.75
2016-12-14T09:39:06.360Z,21.79
2016-12-14T09:40:15.517Z,21.82
2016-12-14T09:41:25.169Z,21.79
2016-12-14T09:42:33.856Z,21.79
2016-12-14T09:43:43.179Z,21.77
2016-12-14T09:44:51.873Z,21.79
2016-12-14T09:46:00.880Z,21.75
2016-12-14T09:47:09.873Z,21.74
2016-12-14T09:48:18.858Z,21.77
2016-12-14T09:49:27.846Z,21.74
2016-12-14T09:50:36.841Z,21.74
2016-12-14T09:51:46.177Z,21.72
2016-12-14T09:52:55.186Z,21.71
2016-12-14T09:54:03.887Z,21.72
2016-12-14T09:55:12.585Z,21.65
2016-12-14T09:56:21.906Z,21.72
2016-12-14T09:57:31.523Z,21.67
2016-12-14T09:58:41.128Z,21.64
2016-12-14T09:59:50.131Z,21.65
2016-12-14T10:00:59.436Z,21.64
2016-12-14T10:02:08.144Z,21.62
2016-12-14T10:03:16.835Z,21.65
2016-12-14T10:04:25.859Z,21.62
2016-12-14T10:05:34.545Z,21.62
2016-12-14T10:06:43.532Z,21.62
2016-12-14T10:07:52.250Z,21.58
2016-12-14T10:09:01.252Z,21.64
2016-12-14T10:10:10.592Z,21.61
2016-12-14T10:11:19.587Z,21.58
2016-12-14T10:12:28.597Z,21.61
2016-12-14T10:13:37.921Z,21.65
2016-12-14T10:14:46.642Z,21.56
2016-12-14T10:15:55.654Z,21.58
2016-12-14T10:17:04.687Z,21.54
2016-12-14T10:18:13.687Z,21.56
2016-12-14T10:19:22.703Z,21.64
2016-12-14T10:20:31.715Z,21.65
2016-12-14T10:21:40.697Z,21.65
2016-12-14T10:22:50.003Z,21.61
2016-12-14T10:23:59.013Z,21.61
2016-12-14T10:25:07.733Z,21.69
2016-12-14T10:26:16.761Z,21.61
2016-12-14T10:27:26.094Z,21.65
2016-12-14T10:28:35.089Z,21.58
2016-12-14T10:29:43.773Z,21.58
2016-12-14T10:30:52.767Z,21.64
2016-12-14T10:32:01.449Z,21.67
2016-12-14T10:33:10.441Z,21.62
2016-12-14T10:34:19.443Z,21.61
2016-12-14T10:35:28.475Z,21.62
2016-12-14T10:36:37.788Z,21.65
2016-12-14T10:37:46.788Z,21.64
2016-12-14T10:38:55.526Z,21.65
2016-12-14T10:40:04.528Z,21.65
2016-12-14T10:41:13.529Z,21.64
2016-12-14T10:42:22.507Z,21.67
2016-12-14T10:43:31.198Z,21.64
2016-12-14T10:44:40.190Z,21.68
2016-12-14T10:45:50.119Z,21.64
2016-12-14T10:46:59.115Z,21.59
2016-12-14T10:48:08.426Z,21.59
2016-12-14T10:49:17.168Z,21.61
2016-12-14T10:50:26.479Z,21.62
2016-12-14T10:51:35.175Z,21.61
2016-12-14T10:52:44.191Z,21.59
2016-12-14T10:53:52.880Z,21.59
2016-12-14T10:55:01.868Z,21.67
2016-12-14T10:56:11.168Z,21.61
2016-12-14T10:57:20.162Z,21.62
2016-12-14T10:58:28.851Z,21.62
2016-12-14T10:59:37.858Z,21.59
2016-12-14T11:00:46.548Z,21.65
2016-12-14T11:01:55.227Z,21.56
2016-12-14T11:03:04.257Z,21.64
2016-12-14T11:04:13.247Z,21.59
2016-12-14T11:05:21.949Z,21.59
2016-12-14T11:06:30.945Z,21.62
2016-12-14T11:07:40.260Z,21.49
2016-12-14T11:08:48.948Z,21.58
2016-12-14T11:09:57.669Z,21.64
2016-12-14T11:11:06.702Z,21.59
2016-12-14T11:12:15.703Z,21.62
2016-12-14T11:13:25.028Z,21.5
2016-12-14T11:14:33.721Z,21.54
2016-12-14T11:15:43.034Z,21.54
2016-12-14T11:16:52.030Z,21.54
2016-12-14T11:18:00.726Z,21.59
2016-12-14T11:19:09.728Z,21.56
2016-12-14T11:20:18.747Z,21.56
2016-12-14T11:21:27.438Z,21.54
2016-12-14T11:22:36.138Z,21.54
2016-12-14T11:23:45.454Z,21.61
2016-12-14T11:24:54.829Z,21.52
2016-12-14T11:26:03.817Z,21.58
2016-12-14T11:27:13.120Z,21.56
2016-12-14T11:28:22.136Z,21.56
2016-12-14T11:29:30.886Z,21.59
2016-12-14T11:30:40.191Z,21.56
2016-12-14T11:31:49.192Z,21.5
2016-12-14T11:32:58.182Z,21.54
2016-12-14T11:34:07.476Z,21.52
2016-12-14T11:35:16.766Z,21.49
2016-12-14T11:36:25.750Z,21.59
2016-12-14T11:37:34.731Z,21.43
2016-12-14T11:38:43.405Z,21.46
2016-12-14T11:39:52.145Z,21.53
2016-12-14T11:41:00.839Z,21.47
2016-12-14T11:42:09.524Z,21.43
2016-12-14T11:43:18.225Z,21.49
2016-12-14T11:44:27.544Z,21.49
2016-12-14T11:45:36.849Z,21.49
2016-12-14T11:46:45.542Z,21.53
2016-12-14T11:47:54.842Z,21.4
2016-12-14T11:49:03.846Z,21.44
2016-12-14T11:50:12.841Z,21.44
2016-12-14T11:51:22.142Z,21.37
2016-12-14T11:52:31.755Z,21.4
2016-12-14T11:53:40.750Z,21.42
2016-12-14T11:54:50.064Z,21.42
2016-12-14T11:55:59.062Z,21.44
2016-12-14T11:57:08.361Z,21.47
2016-12-14T11:58:17.356Z,21.46
2016-12-14T11:59:26.036Z,21.4
2016-12-14T12:00:34.724Z,21.44
2016-12-14T12:01:43.715Z,21.44
2016-12-14T12:02:52.424Z,21.47
2016-12-14T12:04:02.026Z,21.43
2016-12-14T12:05:10.730Z,21.47
2016-12-14T12:06:20.394Z,21.43
2016-12-14T12:07:29.078Z,21.44
2016-12-14T12:08:37.766Z,21.44
2016-12-14T12:09:46.757Z,21.34
2016-12-14T12:10:56.064Z,21.43
2016-12-14T12:12:05.061Z,21.34
2016-12-14T12:13:13.749Z,21.4
2016-12-14T12:14:22.737Z,21.43
2016-12-14T12:15:31.743Z,21.47
2016-12-14T12:16:40.425Z,21.34
2016-12-14T12:17:49.415Z,21.43
2016-12-14T12:18:59.013Z,21.4
2016-12-14T12:20:08.000Z,21.34
2016-12-14T12:21:17.303Z,21.46
2016-12-14T12:22:25.999Z,21.4
2016-12-14T12:23:35.307Z,21.46
2016-12-14T12:24:44.310Z,21.47
2016-12-14T12:25:53.605Z,21.38
2016-12-14T12:27:02.607Z,21.35
2016-12-14T12:28:11.608Z,21.47
2016-12-14T12:29:20.915Z,21.47
2016-12-14T12:30:30.530Z,21.42
2016-12-14T12:31:39.530Z,21.4
2016-12-14T12:32:48.827Z,21.43
2016-12-14T12:33:57.509Z,21.4
2016-12-14T12:35:06.515Z,21.47
2016-12-14T12:36:15.270Z,21.38
2016-12-14T12:37:24.286Z,21.47
2016-12-14T12:38:32.971Z,21.34
2016-12-14T12:39:42.259Z,21.37
2016-12-14T12:40:52.179Z,21.37
2016-12-14T12:42:01.474Z,21.4
2016-12-14T12:43:10.161Z,21.38
2016-12-14T12:44:19.184Z,21.34
2016-12-14T12:45:28.164Z,21.34
2016-12-14T12:46:36.842Z,21.32
2016-12-14T12:47:45.885Z,21.37
2016-12-14T12:48:54.560Z,21.37
2016-12-14T12:50:03.540Z,21.38
2016-12-14T12:51:12.531Z,21.37
2016-12-14T12:52:21.229Z,21.34
2016-12-14T12:53:30.528Z,21.34
2016-12-14T12:54:39.217Z,21.44
2016-12-14T12:55:48.849Z,21.4
2016-12-14T12:56:58.152Z,21.4
2016-12-14T12:58:07.157Z,21.47
2016-12-14T12:59:16.477Z,21.37
2016-12-14T13:00:25.177Z,21.4
2016-12-14T13:01:34.494Z,21.4
2016-12-14T13:02:43.529Z,21.37
2016-12-14T13:03:52.528Z,21.4
2016-12-14T13:05:01.221Z,21.37
2016-12-14T13:06:10.535Z,21.4
2016-12-14T13:07:19.531Z,21.37
2016-12-14T13:08:28.235Z,21.47
2016-12-14T13:09:37.543Z,21.4
2016-12-14T13:10:46.244Z,21.37
2016-12-14T13:11:55.241Z,21.37
2016-12-14T13:13:04.237Z,21.34
2016-12-14T13:14:13.565Z,21.38
2016-12-14T13:15:22.298Z,21.46
2016-12-14T13:16:31.290Z,21.43
2016-12-14T13:17:40.283Z,21.4
2016-12-14T13:18:49.576Z,21.37
2016-12-14T13:19:58.572Z,21.37
2016-12-14T13:21:07.565Z,21.34
2016-12-14T13:22:16.554Z,21.4
2016-12-14T13:23:25.249Z,21.4
2016-12-14T13:24:34.271Z,21.38
2016-12-14T13:25:42.950Z,21.34
2016-12-14T13:26:52.248Z,21.34
2016-12-14T13:28:00.934Z,21.32
2016-12-14T13:29:09.957Z,21.43
2016-12-14T13:30:18.648Z,21.37
2016-12-14T13:31:27.937Z,21.38
2016-12-14T13:32:36.920Z,21.42
2016-12-14T13:33:45.931Z,21.37
2016-12-14T13:34:54.642Z,21.38
2016-12-14T13:36:03.643Z,21.31
2016-12-14T13:37:12.644Z,21.32
2016-12-14T13:38:21.333Z,21.34
2016-12-14T13:39:30.332Z,21.32
2016-12-14T13:40:39.030Z,21.27
2016-12-14T13:41:48.024Z,21.35
2016-12-14T13:42:57.032Z,21.28
2016-12-14T13:44:05.743Z,21.31
2016-12-14T13:45:14.736Z,21.27
2016-12-14T13:46:23.730Z,21.29
2016-12-14T13:47:32.734Z,21.27
2016-12-14T13:48:41.723Z,21.25
2016-12-14T13:49:50.702Z,21.28
2016-12-14T13:51:00.313Z,21.32
2016-12-14T13:52:09.607Z,21.29
2016-12-14T13:53:18.899Z,21.27
2016-12-14T13:54:27.886Z,21.34
2016-12-14T13:55:36.588Z,21.28
2016-12-14T13:56:45.908Z,21.32
2016-12-14T13:57:54.622Z,21.29
2016-12-14T13:59:03.614Z,21.25
2016-12-14T14:00:12.281Z,21.27
2016-12-14T14:01:20.989Z,21.32
2016-12-14T14:02:29.986Z,21.17
2016-12-14T14:03:38.669Z,21.27
2016-12-14T14:04:47.707Z,21.25
2016-12-14T14:05:56.382Z,21.22
2016-12-14T14:07:05.089Z,21.25
2016-12-14T14:08:14.083Z,21.24
2016-12-14T14:09:23.386Z,21.21
2016-12-14T14:10:32.684Z,21.25
2016-12-14T14:11:41.977Z,21.25
2016-12-14T14:12:50.691Z,21.21
2016-12-14T14:13:59.678Z,21.25
2016-12-14T14:15:08.369Z,21.21
2016-12-14T14:16:17.369Z,21.25
2016-12-14T14:17:26.077Z,21.27
2016-12-14T14:18:35.385Z,21.17
2016-12-14T14:19:44.404Z,21.24
2016-12-14T14:20:53.090Z,21.27
2016-12-14T14:22:01.790Z,21.25
2016-12-14T14:23:11.082Z,21.16
2016-12-14T14:24:20.093Z,21.16
2016-12-14T14:25:29.150Z,21.25
2016-12-14T14:26:38.443Z,21.24
2016-12-14T14:27:47.132Z,21.24
2016-12-14T14:28:55.814Z,21.19
2016-12-14T14:30:04.820Z,21.14
2016-12-14T14:31:13.830Z,21.14
2016-12-14T14:32:22.520Z,21.16
2016-12-14T14:33:31.534Z,21.19
2016-12-14T14:34:41.138Z,21.16
2016-12-14T14:35:50.464Z,21.19
2016-12-14T14:36:59.438Z,21.17
2016-12-14T14:38:08.730Z,21.13
2016-12-14T14:39:17.755Z,21.13
2016-12-14T14:40:26.751Z,21.1
2016-12-14T14:41:36.357Z,21.13
2016-12-14T14:42:46.285Z,21.14
2016-12-14T14:43:55.276Z,21.14
2016-12-14T14:45:05.568Z,21.13
2016-12-14T14:46:14.564Z,21.13
2016-12-14T14:47:24.543Z,21.12
2016-12-14T14:48:33.228Z,21.14
2016-12-14T14:49:42.242Z,21.13
2016-12-14T14:50:51.330Z,21.13
2016-12-14T14:52:00.016Z,21.13
2016-12-14T14:53:08.710Z,21.21
2016-12-14T14:54:17.698Z,21.09
2016-12-14T14:55:26.711Z,21.13
2016-12-14T14:56:35.383Z,21.13
2016-12-14T14:57:44.409Z,21.07